createdAt,value
2019-03-20T00:00:45.174Z,16.17
2019-03-20T00:03:12.422Z,12.07
2019-03-20T00:05:39.829Z,14.47
2019-03-20T00:08:07.057Z,13.73
2019-03-20T00:10:34.353Z,15.53
2019-03-20T00:13:01.721Z,18.37
2019-03-20T00:15:28.932Z,13.67
2019-03-20T00:17:56.221Z,19.30
2019-03-20T00:20:23.549Z,18.20
2019-03-20T00:22:51.007Z,15.90
2019-03-20T00:25:18.206Z,18.23
2019-03-20T00:27:45.456Z,13.70
2019-03-20T00:30:12.996Z,19.13
2019-03-20T00:32:40.250Z,14.73
2019-03-20T00:35:07.815Z,12.70
2019-03-20T00:37:35.051Z,11.57
2019-03-20T00:40:03.140Z,13.17
2019-03-20T00:42:30.559Z,13.70
2019-03-20T00:44:57.988Z,14.10
2019-03-20T00:47:25.345Z,15.10
2019-03-20T00:49:52.637Z,9.97
2019-03-20T00:52:19.862Z,17.30
2019-03-20T00:54:47.064Z,15.50
2019-03-20T00:57:14.328Z,13.70
2019-03-20T00:59:41.552Z,16.03
2019-03-20T01:02:08.745Z,20.20
2019-03-20T01:04:36.049Z,17.00
2019-03-20T01:07:03.480Z,15.73
2019-03-20T01:09:30.685Z,16.47
2019-03-20T01:11:57.905Z,16.03
2019-03-20T01:14:25.124Z,22.10
2019-03-20T01:16:52.358Z,19.93
2019-03-20T01:19:19.553Z,16.07
2019-03-20T01:21:46.785Z,15.63
2019-03-20T01:24:14.063Z,14.03
2019-03-20T01:26:41.298Z,18.40
2019-03-20T01:29:08.561Z,16.37
2019-03-20T01:31:35.766Z,18.23
2019-03-20T01:34:03.105Z,13.77
2019-03-20T01:36:30.325Z,13.63
2019-03-20T01:38:57.551Z,24.10
2019-03-20T01:41:24.765Z,11.33
2019-03-20T01:43:52.000Z,15.83
2019-03-20T01:46:19.212Z,15.40
2019-03-20T01:48:46.417Z,18.17
2019-03-20T01:51:18.150Z,15.83
2019-03-20T01:53:45.409Z,13.87
2019-03-20T01:56:12.797Z,21.40
2019-03-20T01:58:40.032Z,11.40
2019-03-20T02:01:07.353Z,17.00
2019-03-20T02:03:34.660Z,11.67
2019-03-20T02:06:01.965Z,12.00
2019-03-20T02:08:29.268Z,11.33
2019-03-20T02:10:56.508Z,25.30
2019-03-20T02:13:23.709Z,17.90
2019-03-20T02:15:50.993Z,11.43
2019-03-20T02:18:18.228Z,18.47
2019-03-20T02:20:45.508Z,15.73
2019-03-20T02:23:12.704Z,11.33
2019-03-20T02:25:40.039Z,8.53
2019-03-20T02:28:07.263Z,11.67
2019-03-20T02:30:34.665Z,14.27
2019-03-20T02:33:01.967Z,13.20
2019-03-20T02:35:29.294Z,16.20
2019-03-20T02:37:56.526Z,13.90
2019-03-20T02:40:23.755Z,16.93
2019-03-20T02:42:51.007Z,13.03
2019-03-20T02:45:18.322Z,14.40
2019-03-20T02:47:45.559Z,14.90
2019-03-20T02:50:13.274Z,12.87
2019-03-20T02:52:40.631Z,20.33
2019-03-20T02:55:07.861Z,14.80
2019-03-20T02:57:35.142Z,21.83
2019-03-20T03:00:03.506Z,15.47
2019-03-20T03:02:31.018Z,24.80
2019-03-20T03:04:58.230Z,9.77
2019-03-20T03:07:25.480Z,12.93
2019-03-20T03:09:52.714Z,11.70
2019-03-20T03:12:19.937Z,26.20
2019-03-20T03:14:47.234Z,20.63
2019-03-20T03:17:14.564Z,16.10
2019-03-20T03:19:41.779Z,17.73
2019-03-20T03:22:09.440Z,19.10
2019-03-20T03:24:36.851Z,21.50
2019-03-20T03:27:04.074Z,18.97
2019-03-20T03:29:31.318Z,12.20
2019-03-20T03:31:58.557Z,15.50
2019-03-20T03:34:25.894Z,17.57
2019-03-20T03:36:53.188Z,15.83
2019-03-20T03:39:20.473Z,14.27
2019-03-20T03:41:47.862Z,13.33
2019-03-20T03:44:15.062Z,16.10
2019-03-20T03:46:42.279Z,12.50
2019-03-20T03:49:09.513Z,16.37
2019-03-20T03:51:36.750Z,13.63
2019-03-20T03:54:03.978Z,13.77
2019-03-20T03:56:31.205Z,16.23
2019-03-20T03:58:58.418Z,15.70
2019-03-20T04:01:25.629Z,13.57
2019-03-20T04:03:52.843Z,11.70
2019-03-20T04:06:20.073Z,16.33
2019-03-20T04:08:47.383Z,16.13
2019-03-20T04:11:14.602Z,15.80
2019-03-20T04:13:41.850Z,27.40
2019-03-20T04:16:09.069Z,14.93
2019-03-20T04:18:36.323Z,24.10
2019-03-20T04:21:03.621Z,21.13
2019-03-20T04:23:30.835Z,18.23
2019-03-20T04:25:58.040Z,22.33
2019-03-20T04:28:25.341Z,25.00
2019-03-20T04:30:52.539Z,19.53
2019-03-20T04:33:19.800Z,23.47
2019-03-20T04:35:47.139Z,15.10
2019-03-20T04:38:14.428Z,15.23
2019-03-20T04:40:41.713Z,14.70
2019-03-20T04:43:08.917Z,15.73
2019-03-20T04:45:36.108Z,20.23
2019-03-20T04:48:03.314Z,17.67
2019-03-20T04:50:30.509Z,26.23
2019-03-20T04:52:57.697Z,22.93
2019-03-20T04:55:24.924Z,16.80
2019-03-20T04:57:52.477Z,18.27
2019-03-20T05:00:19.841Z,14.17
2019-03-20T05:02:47.176Z,20.13
2019-03-20T05:05:14.429Z,17.93
2019-03-20T05:07:41.723Z,13.80
2019-03-20T05:10:10.264Z,17.43
2019-03-20T05:12:37.529Z,14.50
2019-03-20T05:15:05.073Z,12.53
2019-03-20T05:17:32.318Z,26.77
2019-03-20T05:19:59.673Z,16.20
2019-03-20T05:22:26.892Z,17.07
2019-03-20T05:24:54.662Z,13.83
2019-03-20T05:27:22.201Z,11.47
2019-03-20T05:29:49.593Z,21.03
2019-03-20T05:32:16.823Z,17.33
2019-03-20T05:34:44.186Z,15.10
2019-03-20T05:37:11.417Z,26.73
2019-03-20T05:39:38.805Z,25.13
2019-03-20T05:42:06.153Z,16.07
2019-03-20T05:44:33.413Z,19.47
2019-03-20T05:47:00.665Z,11.93
2019-03-20T05:49:28.010Z,17.30
2019-03-20T05:51:55.568Z,15.57
2019-03-20T05:54:22.890Z,27.30
2019-03-20T05:56:50.583Z,12.20
2019-03-20T05:59:17.864Z,14.43
2019-03-20T06:01:45.201Z,16.17
2019-03-20T06:04:12.401Z,14.90
2019-03-20T06:06:39.840Z,16.57
2019-03-20T06:09:07.237Z,17.80
2019-03-20T06:11:34.472Z,22.57
2019-03-20T06:14:01.825Z,20.43
2019-03-20T06:16:29.208Z,17.60
2019-03-20T06:18:56.450Z,14.07
2019-03-20T06:21:23.714Z,21.33
2019-03-20T06:23:51.055Z,21.90
2019-03-20T06:26:18.314Z,16.63
2019-03-20T06:28:45.658Z,20.17
2019-03-20T06:31:13.114Z,20.97
2019-03-20T06:33:40.344Z,21.03
2019-03-20T06:36:07.592Z,20.50
2019-03-20T06:38:34.917Z,21.67
2019-03-20T06:41:02.169Z,13.90
2019-03-20T06:43:29.659Z,28.27
2019-03-20T06:45:56.906Z,43.70
2019-03-20T06:48:24.120Z,62.33
2019-03-20T06:50:51.345Z,55.63
2019-03-20T06:53:18.560Z,39.10
2019-03-20T06:55:45.810Z,28.20
2019-03-20T06:58:13.048Z,31.30
2019-03-20T07:01:25.384Z,21.10
2019-03-20T07:04:37.942Z,17.13
2019-03-20T07:13:46.480Z,17.40
2019-03-20T07:16:13.688Z,22.47
2019-03-20T07:18:40.963Z,23.20
2019-03-20T07:21:08.214Z,27.40
2019-03-20T07:23:35.400Z,34.50
2019-03-20T07:26:04.249Z,30.50
2019-03-20T07:28:31.625Z,18.80
2019-03-20T07:30:58.881Z,23.87
2019-03-20T07:33:26.177Z,23.87
2019-03-20T07:35:53.401Z,22.93
2019-03-20T07:38:20.971Z,14.37
2019-03-20T07:40:48.176Z,13.13
2019-03-20T07:43:15.385Z,16.10
2019-03-20T07:45:43.018Z,19.77
2019-03-20T07:48:21.232Z,13.17
2019-03-20T07:50:39.661Z,13.53
2019-03-20T07:53:06.842Z,18.07
2019-03-20T07:55:34.049Z,17.10
2019-03-20T07:58:01.250Z,19.40
2019-03-20T08:00:28.505Z,12.60
2019-03-20T08:02:55.750Z,18.20
2019-03-20T08:05:29.143Z,17.73
2019-03-20T08:07:52.080Z,17.50
2019-03-20T08:10:19.285Z,18.63
2019-03-20T08:12:46.496Z,13.63
2019-03-20T08:15:13.845Z,19.33
2019-03-20T08:17:41.158Z,10.27
2019-03-20T08:20:10.073Z,15.87
2019-03-20T08:22:37.290Z,21.47
2019-03-20T08:25:04.669Z,24.37
2019-03-20T08:27:31.876Z,22.43
2019-03-20T08:29:59.096Z,13.87
2019-03-20T08:32:26.306Z,12.47
2019-03-20T08:34:53.515Z,14.47
2019-03-20T08:37:20.713Z,13.03
2019-03-20T08:39:47.937Z,13.80
2019-03-20T08:45:00.927Z,15.70
2019-03-20T08:47:28.315Z,12.73
2019-03-20T08:49:55.650Z,15.83
2019-03-20T08:52:22.877Z,13.83
2019-03-20T08:54:50.189Z,11.43
2019-03-20T08:57:17.487Z,13.73
2019-03-20T08:59:44.812Z,13.13
2019-03-20T09:02:12.116Z,22.27
2019-03-20T09:04:39.433Z,14.77
2019-03-20T09:07:06.639Z,25.67
2019-03-20T09:09:33.869Z,12.73
2019-03-20T09:12:12.464Z,19.10
2019-03-20T09:14:39.813Z,11.90
2019-03-20T09:17:07.106Z,15.20
2019-03-20T09:19:34.381Z,12.50
2019-03-20T09:22:01.623Z,18.03
2019-03-20T09:24:28.845Z,15.33
2019-03-20T09:26:56.082Z,17.27
2019-03-20T09:29:23.304Z,14.50
2019-03-20T09:31:50.485Z,16.47
2019-03-20T09:34:17.749Z,13.63
2019-03-20T09:36:44.958Z,15.00
2019-03-20T09:39:12.204Z,7.00
2019-03-20T09:41:39.428Z,13.43
2019-03-20T09:44:06.746Z,14.93
2019-03-20T09:46:33.940Z,13.63
2019-03-20T09:49:01.257Z,12.63
2019-03-20T09:51:28.482Z,11.27
2019-03-20T09:53:55.693Z,11.90
2019-03-20T09:56:22.916Z,17.57
2019-03-20T09:58:50.189Z,11.13
2019-03-20T10:01:17.385Z,13.27
2019-03-20T10:03:44.611Z,11.93
2019-03-20T10:06:11.823Z,17.97
2019-03-20T10:08:39.014Z,10.73
2019-03-20T10:11:06.326Z,11.10
2019-03-20T10:13:33.692Z,8.60
2019-03-20T10:16:01.380Z,13.33
2019-03-20T10:18:28.640Z,13.93
2019-03-20T10:20:55.920Z,9.23
2019-03-20T10:23:23.225Z,9.63
2019-03-20T10:25:50.453Z,8.40
2019-03-20T10:28:17.889Z,6.80
2019-03-20T10:30:45.089Z,8.40
2019-03-20T10:33:12.307Z,7.37
2019-03-20T10:35:49.683Z,7.80
2019-03-20T10:38:08.747Z,8.00
2019-03-20T10:40:35.996Z,12.43
2019-03-20T10:43:03.407Z,11.20
2019-03-20T10:45:30.628Z,9.93
2019-03-20T10:47:57.932Z,7.83
2019-03-20T10:50:25.151Z,6.87
2019-03-20T10:52:52.451Z,8.07
2019-03-20T10:55:19.754Z,10.60
2019-03-20T10:57:47.137Z,6.97
2019-03-20T11:00:16.547Z,12.13
2019-03-20T11:02:44.177Z,11.93
2019-03-20T11:05:11.621Z,5.80
2019-03-20T11:07:38.862Z,12.83
2019-03-20T11:10:06.977Z,9.10
2019-03-20T11:12:34.210Z,13.80
2019-03-20T11:15:01.397Z,6.77
2019-03-20T11:17:28.615Z,6.33
2019-03-20T11:19:56.400Z,10.83
2019-03-20T11:22:23.769Z,6.67
2019-03-20T11:24:50.981Z,7.97
2019-03-20T11:27:18.204Z,13.63
2019-03-20T11:29:45.393Z,12.73
2019-03-20T11:32:14.386Z,6.13
2019-03-20T11:34:41.877Z,11.43
2019-03-20T11:37:09.199Z,11.90
2019-03-20T11:39:36.425Z,19.10
2019-03-20T11:42:03.633Z,18.10
2019-03-20T11:44:30.852Z,13.13
2019-03-20T11:46:58.138Z,9.63
2019-03-20T11:49:25.384Z,7.20
2019-03-20T11:51:52.665Z,11.80
2019-03-20T11:54:19.872Z,13.50
2019-03-20T11:56:47.217Z,5.27
2019-03-20T11:59:14.413Z,12.30
2019-03-20T12:01:41.624Z,12.33
2019-03-20T12:04:08.834Z,14.50
2019-03-20T12:06:36.048Z,15.33
2019-03-20T12:09:07.180Z,8.10
2019-03-20T12:11:45.210Z,5.30
2019-03-20T12:14:03.833Z,12.13
2019-03-20T12:16:31.117Z,16.27
2019-03-20T12:18:58.329Z,8.10
2019-03-20T12:21:25.538Z,7.80
2019-03-20T12:23:52.750Z,19.13
2019-03-20T12:26:19.967Z,12.73
2019-03-20T12:28:47.169Z,10.90
2019-03-20T12:31:14.361Z,12.33
2019-03-20T12:33:41.589Z,7.80
2019-03-20T12:36:08.769Z,11.13
2019-03-20T12:38:35.973Z,10.80
2019-03-20T12:41:03.196Z,16.77
2019-03-20T12:43:30.473Z,7.90
2019-03-20T12:45:57.792Z,11.87
2019-03-20T12:48:25.105Z,10.73
2019-03-20T12:50:52.307Z,14.73
2019-03-20T12:53:19.983Z,13.13
2019-03-20T12:55:47.180Z,12.33
2019-03-20T12:58:14.386Z,8.40
2019-03-20T13:00:41.598Z,13.50
2019-03-20T13:03:08.953Z,13.03
2019-03-20T13:05:36.221Z,14.80
2019-03-20T13:08:06.055Z,16.83
2019-03-20T13:10:32.998Z,14.07
2019-03-20T13:13:00.221Z,16.57
2019-03-20T13:15:27.610Z,12.03
2019-03-20T13:17:55.129Z,15.90
2019-03-20T13:20:22.652Z,13.60
2019-03-20T13:22:53.132Z,14.47
2019-03-20T13:25:20.349Z,14.13
2019-03-20T13:27:47.545Z,12.30
2019-03-20T13:30:23.357Z,13.50
2019-03-20T13:32:50.554Z,14.53
2019-03-20T13:35:17.854Z,10.40
2019-03-20T13:37:45.061Z,11.33
2019-03-20T13:40:14.724Z,8.23
2019-03-20T13:42:41.508Z,11.27
2019-03-20T13:45:11.295Z,11.10
2019-03-20T13:47:38.493Z,16.30
2019-03-20T13:50:07.125Z,19.10
2019-03-20T13:52:34.429Z,16.53
2019-03-20T13:55:01.662Z,14.07
2019-03-20T13:57:28.868Z,13.87
2019-03-20T13:59:56.098Z,15.40
2019-03-20T14:02:23.469Z,14.07
2019-03-20T14:04:50.683Z,11.40
2019-03-20T14:07:17.953Z,8.97
2019-03-20T14:09:45.181Z,12.70
2019-03-20T14:12:12.461Z,10.23
2019-03-20T14:14:39.676Z,13.97
2019-03-20T14:17:06.893Z,10.80
2019-03-20T14:19:34.113Z,14.93
2019-03-20T14:22:01.325Z,14.23
2019-03-20T14:24:28.521Z,15.20
2019-03-20T14:26:55.725Z,9.90
2019-03-20T14:29:23.088Z,11.70
2019-03-20T14:31:50.277Z,7.80
2019-03-20T14:34:17.481Z,14.90
2019-03-20T14:36:44.705Z,11.20
2019-03-20T14:39:11.922Z,10.10
2019-03-20T14:41:39.232Z,12.13
2019-03-20T14:44:06.541Z,10.67
2019-03-20T14:46:33.729Z,9.80
2019-03-20T14:49:00.956Z,8.63
2019-03-20T14:51:28.165Z,8.17
2019-03-20T14:53:55.410Z,13.40
2019-03-20T14:56:22.817Z,5.57
2019-03-20T14:58:50.035Z,10.90
2019-03-20T15:01:17.252Z,9.83
2019-03-20T15:03:44.456Z,8.00
2019-03-20T15:06:11.681Z,9.70
2019-03-20T15:08:39.087Z,13.70
2019-03-20T15:11:06.508Z,21.20
2019-03-20T15:13:33.713Z,11.47
2019-03-20T15:16:04.832Z,17.10
2019-03-20T15:18:32.052Z,19.63
2019-03-20T15:20:59.256Z,9.73
2019-03-20T15:23:26.536Z,12.90
2019-03-20T15:25:53.748Z,9.33
2019-03-20T15:28:21.015Z,8.60
2019-03-20T15:30:48.210Z,6.80
2019-03-20T15:33:15.446Z,6.80
2019-03-20T15:35:42.647Z,6.47
2019-03-20T15:38:09.990Z,8.33
2019-03-20T15:40:37.227Z,7.47
2019-03-20T15:43:04.529Z,13.47
2019-03-20T15:45:31.853Z,10.23
2019-03-20T15:47:59.069Z,14.17
2019-03-20T15:50:26.396Z,9.50
2019-03-20T15:52:53.621Z,6.90
2019-03-20T15:55:26.307Z,10.30
2019-03-20T15:57:53.509Z,9.33
2019-03-20T16:00:20.825Z,16.53
2019-03-20T16:02:49.032Z,12.30
2019-03-20T16:05:16.237Z,11.70
2019-03-20T16:07:43.481Z,9.20
2019-03-20T16:10:13.434Z,16.10
2019-03-20T16:12:40.725Z,12.77
2019-03-20T16:15:09.822Z,10.47
2019-03-20T16:17:37.025Z,12.33
2019-03-20T16:20:05.543Z,12.27
2019-03-20T16:22:32.861Z,15.47
2019-03-20T16:25:00.244Z,9.07
2019-03-20T16:27:27.581Z,15.47
2019-03-20T16:29:54.780Z,7.63
2019-03-20T16:32:21.993Z,10.50
2019-03-20T16:34:49.296Z,13.03
2019-03-20T16:37:16.476Z,11.30
2019-03-20T16:39:43.658Z,10.80
2019-03-20T16:42:10.881Z,13.13
2019-03-20T16:44:38.073Z,10.00
2019-03-20T16:47:05.264Z,5.63
2019-03-20T16:49:32.478Z,13.03
2019-03-20T16:51:59.680Z,12.77
2019-03-20T16:54:26.877Z,11.60
2019-03-20T16:56:54.084Z,21.73
2019-03-20T16:59:21.287Z,11.20
2019-03-20T17:01:48.472Z,10.67
2019-03-20T17:04:15.693Z,10.57
2019-03-20T17:06:42.880Z,20.23
2019-03-20T17:09:10.081Z,14.83
2019-03-20T17:11:38.507Z,18.13
2019-03-20T17:14:06.100Z,21.73
2019-03-20T17:16:33.319Z,14.77
2019-03-20T17:19:01.012Z,13.77
2019-03-20T17:21:28.348Z,16.70
2019-03-20T17:23:55.620Z,20.53
2019-03-20T17:26:23.038Z,24.23
2019-03-20T17:28:50.228Z,50.87
2019-03-20T17:31:17.440Z,51.93
2019-03-20T17:33:44.642Z,26.13
2019-03-20T17:36:11.868Z,20.40
2019-03-20T17:38:39.101Z,16.73
2019-03-20T17:41:06.316Z,18.93
2019-03-20T17:43:33.513Z,14.10
2019-03-20T17:46:00.829Z,10.70
2019-03-20T17:48:28.057Z,14.07
2019-03-20T17:50:55.278Z,15.93
2019-03-20T17:53:22.505Z,12.23
2019-03-20T17:55:49.719Z,20.03
2019-03-20T17:58:17.026Z,16.30
2019-03-20T18:00:46.061Z,20.17
2019-03-20T18:03:13.261Z,9.70
2019-03-20T18:05:40.480Z,17.77
2019-03-20T18:08:08.044Z,29.30
2019-03-20T18:10:35.362Z,24.13
2019-03-20T18:13:03.004Z,18.23
2019-03-20T18:15:30.264Z,12.30
2019-03-20T18:17:57.571Z,12.93
2019-03-20T18:20:24.815Z,21.70
2019-03-20T18:22:52.188Z,13.87
2019-03-20T18:25:19.596Z,15.13
2019-03-20T18:27:46.832Z,10.63
2019-03-20T18:30:16.494Z,11.00
2019-03-20T18:32:43.789Z,9.80
2019-03-20T18:35:11.078Z,7.93
2019-03-20T18:37:38.293Z,14.97
2019-03-20T18:40:06.302Z,11.80
2019-03-20T18:42:33.617Z,42.00
2019-03-20T18:45:00.861Z,30.63
2019-03-20T18:47:28.092Z,17.10
2019-03-20T18:49:55.434Z,15.73
2019-03-20T18:52:22.649Z,9.70
2019-03-20T18:54:49.973Z,10.00
2019-03-20T18:57:17.201Z,13.13
2019-03-20T18:59:44.425Z,20.87
2019-03-20T19:02:11.929Z,52.10
2019-03-20T19:04:39.157Z,30.70
2019-03-20T19:07:06.369Z,24.40
2019-03-20T19:09:33.780Z,20.43
2019-03-20T19:12:08.638Z,28.30
2019-03-20T19:14:30.241Z,38.80
2019-03-20T19:16:57.466Z,20.00
2019-03-20T19:19:24.680Z,14.33
2019-03-20T19:21:51.913Z,19.43
2019-03-20T19:24:19.127Z,15.17
2019-03-20T19:26:46.448Z,18.77
2019-03-20T19:29:13.662Z,36.60
2019-03-20T19:31:40.886Z,35.53
2019-03-20T19:34:08.088Z,31.40
2019-03-20T19:36:35.298Z,21.87
2019-03-20T19:39:04.597Z,15.37
2019-03-20T19:41:31.801Z,15.93
2019-03-20T19:43:59.005Z,22.00
2019-03-20T19:46:26.272Z,18.83
2019-03-20T19:48:53.614Z,20.13
2019-03-20T19:51:20.829Z,18.30
2019-03-20T19:53:48.044Z,33.97
2019-03-20T19:56:15.244Z,54.57
2019-03-20T19:58:42.583Z,57.00
2019-03-20T20:01:09.785Z,51.93
2019-03-20T20:03:37.038Z,75.30
2019-03-20T20:06:04.352Z,61.23
2019-03-20T20:08:31.562Z,31.50
2019-03-20T20:10:58.770Z,22.10
2019-03-20T20:13:25.993Z,19.53
2019-03-20T20:15:53.225Z,22.83
2019-03-20T20:18:20.417Z,21.47
2019-03-20T20:20:47.644Z,22.33
2019-03-20T20:23:14.865Z,26.17
2019-03-20T20:25:42.096Z,17.00
2019-03-20T20:28:11.305Z,21.73
2019-03-20T20:30:38.540Z,17.03
2019-03-20T20:33:05.747Z,16.57
2019-03-20T20:35:32.967Z,23.00
2019-03-20T20:38:00.264Z,30.53
2019-03-20T20:40:27.701Z,22.13
2019-03-20T20:42:55.052Z,36.43
2019-03-20T20:45:22.594Z,32.73
2019-03-20T20:47:49.902Z,35.90
2019-03-20T20:50:17.256Z,28.20
2019-03-20T20:52:44.458Z,26.80
2019-03-20T20:55:12.208Z,20.00
2019-03-20T20:57:39.427Z,24.23
2019-03-20T21:00:12.933Z,21.90
2019-03-20T21:02:40.251Z,26.47
2019-03-20T21:05:07.473Z,23.07
2019-03-20T21:07:34.692Z,26.90
2019-03-20T21:10:02.049Z,21.43
2019-03-20T21:12:29.269Z,20.20
2019-03-20T21:14:56.484Z,18.00
2019-03-20T21:17:36.374Z,27.47
2019-03-20T21:20:04.453Z,25.87
2019-03-20T21:23:08.233Z,31.67
2019-03-20T21:25:36.501Z,28.07
2019-03-20T21:28:57.430Z,33.07
2019-03-20T21:31:29.189Z,32.70
2019-03-20T21:34:29.220Z,24.87
2019-03-20T21:37:53.781Z,32.93
2019-03-20T21:40:22.593Z,40.97
2019-03-20T21:43:27.572Z,32.37
2019-03-20T21:46:19.093Z,34.63
2019-03-20T21:48:46.753Z,32.30
2019-03-20T21:51:16.136Z,37.77
2019-03-20T21:54:40.857Z,26.63
2019-03-20T21:57:44.528Z,32.30
2019-03-20T22:00:48.552Z,30.50
2019-03-20T22:03:16.397Z,22.20
2019-03-20T22:06:36.277Z,27.97
2019-03-20T22:09:30.125Z,25.70
2019-03-20T22:12:17.075Z,28.03
2019-03-20T22:14:48.618Z,31.23
2019-03-20T22:18:06.300Z,22.50
2019-03-20T22:20:42.017Z,28.77
2019-03-20T22:24:12.125Z,34.33
2019-03-20T22:27:16.705Z,31.50
2019-03-20T22:29:44.460Z,42.23
2019-03-20T22:33:17.973Z,23.20
2019-03-20T22:36:00.957Z,27.40
2019-03-20T22:39:23.117Z,21.23
2019-03-20T22:42:05.894Z,28.53
2019-03-20T22:44:35.706Z,35.47
2019-03-20T22:47:51.397Z,24.37
2019-03-20T22:50:46.494Z,35.27
2019-03-20T22:53:58.193Z,37.33
2019-03-20T22:57:03.733Z,34.40
2019-03-20T22:59:31.585Z,30.70
2019-03-20T23:02:06.848Z,33.20
2019-03-20T23:04:37.885Z,27.73
2019-03-20T23:07:05.616Z,31.47
2019-03-20T23:09:33.357Z,24.63
2019-03-20T23:12:04.055Z,35.07
2019-03-20T23:14:31.868Z,29.73
2019-03-20T23:16:59.633Z,27.43
2019-03-20T23:19:27.390Z,30.97
2019-03-20T23:21:55.123Z,23.33
2019-03-20T23:24:22.873Z,39.53
2019-03-20T23:26:50.621Z,30.53
2019-03-20T23:29:18.360Z,30.67
2019-03-20T23:31:46.113Z,39.93
2019-03-20T23:34:13.858Z,33.93
2019-03-20T23:36:41.585Z,32.20
2019-03-20T23:39:09.325Z,27.33
2019-03-20T23:41:37.065Z,26.33
2019-03-20T23:44:04.835Z,24.67
2019-03-20T23:46:32.688Z,28.07
2019-03-20T23:49:13.091Z,28.27
2019-03-20T23:51:40.839Z,19.93
2019-03-20T23:54:09.125Z,24.40
2019-03-20T23:56:37.217Z,24.40
2019-03-20T23:59:05.293Z,34.30
